Time;durP1;ratioP1;P1;durP2;ratioP2;P2;SDS_P1;SDS_P2;PMS_P1;PMS_P2;Temp;Humidity;BMP_temperature;BMP_pressure;BME280_temperature;BME280_humidity;BME280_pressure;Samples;Min_cycle;Max_cycle;Signal;HPM_P1;HPM_P2
2022/09/23 00:01:08;;;;;;;1.80;1.20;;;;;;;3.08;100.00;101515.50;5032669;28;20048;-80
2022/09/23 00:03:36;;;;;;;1.10;1.00;;;;;;;3.04;100.00;101525.88;5044893;28;20037;-79
2022/09/23 00:06:09;;;;;;;2.60;1.20;;;;;;;2.91;100.00;101514.22;5020163;28;20124;-79
2022/09/23 00:08:36;;;;;;;1.47;0.80;;;;;;;2.93;100.00;101517.75;5021978;28;20052;-81
2022/09/23 00:11:09;;;;;;;1.30;0.80;;;;;;;2.99;100.00;101519.63;5031452;28;20364;-79
2022/09/23 00:13:36;;;;;;;1.00;0.80;;;;;;;2.93;100.00;101522.09;5054639;28;20037;-79
2022/09/23 00:16:09;;;;;;;2.17;1.30;;;;;;;2.90;100.00;101508.97;5053516;28;20045;-79
2022/09/23 00:18:36;;;;;;;1.03;0.70;;;;;;;2.86;100.00;101509.72;5038388;28;20106;-79
2022/09/23 00:21:08;;;;;;;1.30;0.90;;;;;;;2.86;100.00;101504.50;5033838;28;20041;-81
2022/09/23 00:23:36;;;;;;;2.30;0.83;;;;;;;2.85;100.00;101503.63;5055400;28;20060;-79
2022/09/23 00:26:04;;;;;;;1.23;1.00;;;;;;;2.85;100.00;101506.25;5016782;28;20750;-80
2022/09/23 00:28:32;;;;;;;1.03;0.90;;;;;;;2.76;100.00;101508.63;5064078;28;20048;-79
2022/09/23 00:31:06;;;;;;;1.00;0.80;;;;;;;2.74;100.00;101507.72;5056810;28;20041;-81
2022/09/23 00:33:33;;;;;;;2.80;1.07;;;;;;;2.69;100.00;101502.41;5023116;28;20132;-79
2022/09/23 00:36:01;;;;;;;2.37;1.00;;;;;;;2.69;100.00;101511.91;5032951;28;20050;-79
2022/09/23 00:38:29;;;;;;;1.93;0.93;;;;;;;2.64;100.00;101498.78;5005786;28;20083;-80
2022/09/23 00:40:57;;;;;;;2.43;0.87;;;;;;;2.60;100.00;101506.47;5036843;28;20444;-81
2022/09/23 00:43:45;;;;;;;2.17;0.90;;;;;;;2.65;100.00;101508.38;5049093;28;20037;-80
2022/09/23 00:46:39;;;;;;;1.90;0.90;;;;;;;2.59;100.00;101508.19;5036053;28;20044;-79
2022/09/23 00:49:12;;;;;;;2.83;1.00;;;;;;;2.51;100.00;101505.41;5051630;28;20065;-79
2022/09/23 00:51:45;;;;;;;1.83;0.77;;;;;;;2.51;100.00;101499.31;5055084;28;20477;-81
2022/09/23 00:54:12;;;;;;;0.87;0.80;;;;;;;2.49;100.00;101503.59;5050148;28;20423;-80
2022/09/23 00:56:39;;;;;;;2.73;1.10;;;;;;;2.47;100.00;101497.47;4999637;28;20674;-81
2022/09/23 00:59:08;;;;;;;1.27;0.87;;;;;;;2.51;100.00;101499.31;5069492;28;20055;-82
2022/09/23 01:01:36;;;;;;;1.50;1.10;;;;;;;2.43;100.00;101487.78;5037016;28;20033;-81
2022/09/23 01:04:05;;;;;;;0.90;0.90;;;;;;;2.38;100.00;101486.81;5055424;28;20051;-78
2022/09/23 01:06:31;;;;;;;2.77;1.00;;;;;;;2.41;100.00;101487.75;5032008;28;20052;-80
2022/09/23 01:08:58;;;;;;;1.60;1.30;;;;;;;2.43;100.00;101485.19;5066174;28;20048;-79
2022/09/23 01:11:46;;;;;;;2.63;1.20;;;;;;;2.40;100.00;101487.72;5023857;28;20041;-80
2022/09/23 01:14:36;;;;;;;1.57;0.97;;;;;;;2.39;100.00;101484.22;5038137;28;20041;-79
2022/09/23 01:17:08;;;;;;;1.20;1.00;;;;;;;2.36;100.00;101480.69;5036320;28;20099;-79
2022/09/23 01:19:35;;;;;;;3.13;1.00;;;;;;;2.34;100.00;101475.41;5056234;28;20071;-80
2022/09/23 01:22:52;;;;;;;1.70;1.10;;;;;;;2.26;100.00;101475.19;5057194;28;20098;-80
2022/09/23 01:26:00;;;;;;;1.97;1.07;;;;;;;2.29;100.00;101470.91;5036112;28;20044;-81
2022/09/23 01:28:32;;;;;;;1.17;1.07;;;;;;;2.29;100.00;101471.81;5054804;28;20048;-80
2022/09/23 01:31:09;;;;;;;2.10;1.20;;;;;;;2.22;100.00;101468.16;5052468;28;20048;-79
2022/09/23 01:33:54;;;;;;;2.67;1.40;;;;;;;2.22;100.00;101467.25;5037285;23;20028;-78
2022/09/23 01:36:50;;;;;;;1.00;0.90;;;;;;;2.18;100.00;101471.50;5027236;28;20784;-77
2022/09/23 01:39:57;;;;;;;1.53;1.13;;;;;;;2.11;100.00;101468.72;5033702;28;20045;-78
2022/09/23 01:42:32;;;;;;;1.43;1.00;;;;;;;2.16;100.00;101461.88;5046785;28;20037;-78
2022/09/23 01:45:20;;;;;;;2.57;1.00;;;;;;;2.19;100.00;101462.88;5008243;28;20060;-78
2022/09/23 01:47:54;;;;;;;1.10;1.00;;;;;;;2.07;100.00;101454.69;5046020;28;20037;-78
2022/09/23 01:53:31;;;;;;;3.10;1.30;;;;;;;2.09;100.00;101459.94;5017531;28;20060;-78
2022/09/23 01:56:02;;;;;;;1.30;1.10;;;;;;;2.03;100.00;101455.47;5016616;28;20049;-78
2022/09/23 01:58:38;;;;;;;2.27;1.13;;;;;;;2.03;100.00;101446.78;5018648;28;20042;-77
2022/09/23 02:01:06;;;;;;;2.83;1.10;;;;;;;2.01;100.00;101445.81;5049294;28;20064;-77
2022/09/23 02:03:38;;;;;;;1.57;1.00;;;;;;;2.05;100.00;101448.56;5025463;28;20133;-78
2022/09/23 02:06:09;;;;;;;4.13;1.50;;;;;;;2.00;100.00;101444.94;4999012;28;20478;-78
2022/09/23 02:08:42;;;;;;;1.43;1.03;;;;;;;1.98;100.00;101449.25;5032026;28;20041;-78
2022/09/23 02:11:14;;;;;;;1.67;1.10;;;;;;;2.00;100.00;101441.47;5016352;28;20111;-78
2022/09/23 02:14:07;;;;;;;1.40;1.10;;;;;;;1.94;100.00;101437.00;5014190;28;20045;-77
2022/09/23 02:16:44;;;;;;;3.77;1.93;;;;;;;1.95;100.00;101431.81;5026100;28;20045;-78
2022/09/23 02:19:26;;;;;;;2.40;1.20;;;;;;;1.92;100.00;101439.53;5017266;28;20049;-78
2022/09/23 02:21:58;;;;;;;1.30;1.00;;;;;;;1.93;100.00;101436.09;5031019;28;20049;-77
2022/09/23 02:24:30;;;;;;;3.00;0.90;;;;;;;1.90;100.00;101435.13;5015100;28;20045;-77
2022/09/23 02:27:12;;;;;;;1.67;1.03;;;;;;;1.84;100.00;101420.19;5031340;28;20556;-77
2022/09/23 02:29:48;;;;;;;2.20;1.17;;;;;;;1.83;100.00;101430.59;5015096;28;20045;-78
2022/09/23 02:32:52;;;;;;;1.23;1.00;;;;;;;1.81;100.00;101416.63;5012824;28;20099;-78
2022/09/23 02:35:31;;;;;;;2.77;1.10;;;;;;;1.83;100.00;101418.44;5017377;28;20044;-78
2022/09/23 02:38:21;;;;;;;2.13;1.10;;;;;;;1.81;100.00;101419.25;5004624;28;20487;-78
2022/09/23 02:41:10;;;;;;;1.63;1.20;;;;;;;1.81;100.00;101409.69;5015159;28;20536;-77
2022/09/23 02:43:53;;;;;;;2.87;1.27;;;;;;;1.81;100.00;101414.91;5020758;28;20068;-77
2022/09/23 02:46:20;;;;;;;1.70;1.10;;;;;;;1.81;100.00;101407.09;5016790;28;20048;-77
2022/09/23 02:48:55;;;;;;;1.70;1.00;;;;;;;1.77;100.00;101407.00;5016670;28;20045;-77
2022/09/23 02:51:26;;;;;;;1.50;1.03;;;;;;;1.74;100.00;101399.94;4998972;28;20049;-78
2022/09/23 02:53:57;;;;;;;1.40;1.13;;;;;;;1.82;100.00;101401.03;5016475;28;20049;-78
2022/09/23 02:56:23;;;;;;;1.80;1.10;;;;;;;1.74;100.00;101396.47;5012100;28;20128;-77
2022/09/23 02:58:52;;;;;;;1.80;1.20;;;;;;;1.79;100.00;101392.28;5035402;28;20090;-78
2022/09/23 03:01:46;;;;;;;2.30;1.27;;;;;;;1.75;100.00;101396.50;5031942;28;20039;-77
2022/09/23 03:04:30;;;;;;;1.10;1.00;;;;;;;1.74;100.00;101396.47;5031329;28;20076;-77
2022/09/23 03:07:20;;;;;;;1.60;1.10;;;;;;;1.67;100.00;101385.88;5029930;28;20099;-77
2022/09/23 03:10:01;;;;;;;1.83;1.27;;;;;;;1.70;100.00;101395.53;5024426;28;20042;-78
2022/09/23 03:12:41;;;;;;;1.90;1.23;;;;;;;1.67;100.00;101396.28;5032116;28;20042;-78
2022/09/23 03:15:20;;;;;;;2.40;1.30;;;;;;;1.63;100.00;101391.84;5015472;28;20049;-77
2022/09/23 03:17:55;;;;;;;3.27;1.60;;;;;;;1.65;100.00;101394.50;5013323;28;20049;-78
2022/09/23 03:20:31;;;;;;;2.27;1.10;;;;;;;1.65;100.00;101387.56;5003412;28;20052;-78
2022/09/23 03:23:00;;;;;;;2.10;1.27;;;;;;;1.64;100.00;101388.41;5035604;28;20063;-78
2022/09/23 03:25:30;;;;;;;2.60;1.30;;;;;;;1.60;100.00;101388.31;5019188;28;20201;-77
2022/09/23 03:27:59;;;;;;;1.30;1.20;;;;;;;1.61;100.00;101387.44;5034997;28;20041;-78
2022/09/23 03:30:27;;;;;;;1.73;1.10;;;;;;;1.61;100.00;101382.25;5019793;28;20551;-78
2022/09/23 03:32:54;;;;;;;1.57;1.40;;;;;;;1.58;100.00;101376.94;5002641;28;20048;-78
2022/09/23 03:35:23;;;;;;;1.20;1.00;;;;;;;1.60;100.00;101380.50;5018684;28;20041;-77
2022/09/23 03:38:02;;;;;;;1.23;1.13;;;;;;;1.59;100.00;101376.97;5015217;28;20417;-78
2022/09/23 03:40:32;;;;;;;3.27;1.90;;;;;;;1.60;100.00;101375.28;5020680;28;20044;-78
2022/09/23 03:43:00;;;;;;;2.67;1.70;;;;;;;1.55;100.00;101369.94;5035591;28;20033;-78
2022/09/23 03:45:31;;;;;;;1.90;1.30;;;;;;;1.54;100.00;101368.16;5033247;28;20043;-78
2022/09/23 03:47:58;;;;;;;2.50;1.53;;;;;;;1.54;100.00;101365.56;5021168;28;20037;-78
2022/09/23 03:50:24;;;;;;;2.30;1.50;;;;;;;1.55;100.00;101361.25;5018108;28;20045;-78
2022/09/23 03:52:51;;;;;;;3.83;1.30;;;;;;;1.47;100.00;101358.41;5013517;28;20414;-77
2022/09/23 03:55:19;;;;;;;1.60;1.10;;;;;;;1.51;100.00;101356.75;5018390;28;20082;-77
2022/09/23 03:57:46;;;;;;;1.50;1.10;;;;;;;1.44;100.00;101352.25;5035624;28;20435;-77
2022/09/23 04:00:13;;;;;;;2.67;1.17;;;;;;;1.48;100.00;101354.97;5022719;28;22021;-78
2022/09/23 04:02:40;;;;;;;2.27;1.40;;;;;;;1.42;100.00;101357.41;5038152;28;20037;-77
2022/09/23 04:05:08;;;;;;;1.73;1.27;;;;;;;1.44;100.00;101349.66;5022543;28;20498;-77
2022/09/23 04:07:34;;;;;;;1.60;1.17;;;;;;;1.44;100.00;101357.47;5037368;28;20044;-78
2022/09/23 04:10:01;;;;;;;1.87;1.03;;;;;;;1.45;100.00;101360.09;5038420;28;20041;-78
2022/09/23 04:12:28;;;;;;;3.63;1.30;;;;;;;1.40;100.00;101343.47;5019939;28;20067;-77
2022/09/23 04:14:54;;;;;;;3.03;1.00;;;;;;;1.41;100.00;101351.31;5037712;28;20072;-78
2022/09/23 04:17:21;;;;;;;1.53;1.17;;;;;;;1.41;100.00;101353.03;5021382;28;20067;-77
2022/09/23 04:19:48;;;;;;;2.87;1.60;;;;;;;1.40;100.00;101349.56;5024826;28;20045;-77
2022/09/23 04:22:14;;;;;;;2.07;1.10;;;;;;;1.40;100.00;101338.25;5020469;28;20273;-78
2022/09/23 04:24:41;;;;;;;1.90;1.40;;;;;;;1.43;100.00;101343.56;5019049;28;20744;-77
2022/09/23 04:27:08;;;;;;;2.63;1.70;;;;;;;1.47;100.00;101340.19;5008822;28;20064;-78
2022/09/23 04:29:34;;;;;;;2.83;1.67;;;;;;;1.44;100.00;101344.44;5021985;28;20049;-78
2022/09/23 04:32:01;;;;;;;2.73;1.50;;;;;;;1.35;100.00;101343.34;5021505;28;20037;-77
2022/09/23 04:34:28;;;;;;;2.03;1.47;;;;;;;1.35;100.00;101342.47;5024371;28;20409;-77
2022/09/23 04:36:54;;;;;;;4.93;1.93;;;;;;;1.36;100.00;101333.81;5021255;28;20045;-77
2022/09/23 04:39:21;;;;;;;2.17;1.50;;;;;;;1.32;100.00;101344.97;5039569;28;20041;-78
2022/09/23 04:41:48;;;;;;;2.53;1.60;;;;;;;1.32;100.00;101335.44;5034619;28;20036;-78
2022/09/23 04:44:14;;;;;;;2.63;1.50;;;;;;;1.28;100.00;101328.41;5000138;28;20063;-77
2022/09/23 04:46:42;;;;;;;2.40;1.50;;;;;;;1.29;100.00;101332.75;5018335;28;20044;-78
2022/09/23 04:49:09;;;;;;;2.53;1.40;;;;;;;1.39;100.00;101331.28;5011718;28;20333;-78
2022/09/23 04:51:36;;;;;;;2.23;1.27;;;;;;;1.32;100.00;101342.38;5013830;28;20124;-78
2022/09/23 04:54:03;;;;;;;3.20;1.80;;;;;;;1.28;100.00;101336.22;5027993;28;20060;-78
2022/09/23 04:56:32;;;;;;;1.60;1.40;;;;;;;1.34;100.00;101335.47;5033960;28;20037;-77
2022/09/23 04:59:00;;;;;;;3.20;1.40;;;;;;;1.35;100.00;101337.25;5020622;28;20490;-77
2022/09/23 05:01:29;;;;;;;2.40;1.50;;;;;;;1.38;100.00;101329.53;5011963;28;20057;-78
2022/09/23 05:04:00;;;;;;;1.93;1.50;;;;;;;1.42;100.00;101328.75;5023088;28;20497;-77
2022/09/23 05:06:28;;;;;;;1.77;1.40;;;;;;;1.39;100.00;101329.56;5036220;28;20108;-78
2022/09/23 05:08:56;;;;;;;1.80;1.30;;;;;;;1.40;100.00;101327.84;5026108;28;20041;-78
2022/09/23 05:11:24;;;;;;;2.30;1.37;;;;;;;1.37;100.00;101330.38;5031465;28;20049;-78
2022/09/23 05:13:52;;;;;;;1.73;1.23;;;;;;;1.44;100.00;101329.72;5028676;28;20110;-78
2022/09/23 05:16:20;;;;;;;2.40;1.40;;;;;;;1.38;100.00;101326.94;5020871;28;20079;-78
2022/09/23 05:18:47;;;;;;;2.67;1.30;;;;;;;1.48;100.00;101328.06;5031159;28;20033;-77
2022/09/23 05:21:17;;;;;;;2.10;1.50;;;;;;;1.45;100.00;101334.06;5052256;28;20128;-78
2022/09/23 05:23:57;;;;;;;3.40;1.53;;;;;;;1.42;100.00;101328.75;5051230;28;20029;-77
2022/09/23 05:26:26;;;;;;;3.90;1.30;;;;;;;1.42;100.00;101323.56;5044719;28;20043;-78
2022/09/23 05:28:53;;;;;;;2.90;1.47;;;;;;;1.44;100.00;101328.81;5012983;28;20621;-78
2022/09/23 05:31:22;;;;;;;4.13;1.47;;;;;;;1.43;100.00;101325.34;5011967;28;20539;-78
2022/09/23 05:33:51;;;;;;;2.67;1.90;;;;;;;1.43;100.00;101322.75;5013225;28;20064;-78
2022/09/23 05:36:22;;;;;;;3.13;1.43;;;;;;;1.48;100.00;101322.84;5032440;28;20041;-78
2022/09/23 05:38:49;;;;;;;4.77;1.53;;;;;;;1.48;100.00;101326.31;5028029;28;20041;-78
2022/09/23 05:41:18;;;;;;;2.43;1.43;;;;;;;1.61;100.00;101327.56;4993033;28;20058;-78
2022/09/23 05:43:44;;;;;;;2.07;1.50;;;;;;;1.71;100.00;101320.84;5001183;28;20038;-78
2022/09/23 05:46:11;;;;;;;1.90;1.60;;;;;;;1.64;100.00;101328.50;4997192;28;20047;-77
2022/09/23 05:48:38;;;;;;;2.30;1.23;;;;;;;1.65;100.00;101330.25;5032404;28;20048;-77
2022/09/23 05:51:13;;;;;;;1.50;1.27;;;;;;;1.67;100.00;101323.38;5038035;28;20102;-77
2022/09/23 05:53:43;;;;;;;1.98;1.40;;;;;;;1.72;100.00;101323.50;5015700;28;20064;-78
2022/09/23 05:56:15;;;;;;;2.20;1.50;;;;;;;1.76;100.00;101324.44;5009523;28;20463;-78
2022/09/23 05:58:42;;;;;;;3.57;1.63;;;;;;;1.82;100.00;101322.00;5018314;28;20037;-77
2022/09/23 06:01:10;;;;;;;2.73;1.47;;;;;;;1.84;100.00;101322.91;5033362;28;20044;-78
2022/09/23 06:03:37;;;;;;;2.30;1.83;;;;;;;1.79;100.00;101325.44;5014960;28;20044;-77
2022/09/23 06:06:04;;;;;;;2.00;1.30;;;;;;;1.96;100.00;101318.91;5032542;28;20055;-78
2022/09/23 06:08:33;;;;;;;1.77;1.27;;;;;;;1.98;100.00;101322.44;5012166;28;20141;-77
2022/09/23 06:11:05;;;;;;;2.03;1.43;;;;;;;1.94;100.00;101319.72;4999910;28;20045;-77
2022/09/23 06:13:38;;;;;;;2.13;1.50;;;;;;;2.03;100.00;101309.53;5036216;28;20037;-78
2022/09/23 06:16:14;;;;;;;3.17;1.27;;;;;;;2.05;100.00;101315.66;5018116;28;20045;-77
2022/09/23 06:18:43;;;;;;;2.00;1.30;;;;;;;2.06;100.00;101326.97;5015542;28;20045;-77
2022/09/23 06:21:13;;;;;;;1.57;1.17;;;;;;;2.05;100.00;101318.25;4993257;28;20463;-77
2022/09/23 06:23:40;;;;;;;3.30;1.70;;;;;;;2.12;100.00;101324.50;5015115;28;20060;-78
2022/09/23 06:26:09;;;;;;;4.37;2.30;;;;;;;2.20;100.00;101321.25;5015394;28;20094;-78
2022/09/23 06:28:38;;;;;;;3.87;2.20;;;;;;;2.33;100.00;101329.34;5002890;28;20100;-77
2022/09/23 06:31:12;;;;;;;2.67;1.80;;;;;;;2.38;100.00;101330.34;5002351;28;20044;-77
2022/09/23 06:33:43;;;;;;;2.93;1.90;;;;;;;2.45;100.00;101333.13;5042912;28;20083;-77
2022/09/23 06:36:14;;;;;;;3.30;1.73;;;;;;;2.59;100.00;101336.03;5014040;28;20041;-78
2022/09/23 06:39:01;;;;;;;3.70;1.73;;;;;;;2.70;100.00;101331.97;5017768;28;20049;-77
2022/09/23 06:41:28;;;;;;;1.40;1.30;;;;;;;2.71;100.00;101336.34;5025471;28;20046;-78
2022/09/23 06:43:55;;;;;;;3.40;1.67;;;;;;;2.73;100.00;101332.03;5025838;28;20084;-78
2022/09/23 06:46:21;;;;;;;2.47;1.70;;;;;;;2.83;100.00;101335.72;4998370;28;20107;-77
2022/09/23 06:48:49;;;;;;;2.37;1.70;;;;;;;2.93;100.00;101334.16;5018218;28;20458;-77
2022/09/23 06:51:20;;;;;;;2.23;1.73;;;;;;;3.15;100.00;101333.78;5027050;28;20045;-77
2022/09/23 06:53:48;;;;;;;3.10;1.60;;;;;;;3.48;100.00;101330.06;5010328;28;20151;-78
2022/09/23 06:56:16;;;;;;;2.47;1.53;;;;;;;3.94;100.00;101319.59;5017780;28;20041;-78
2022/09/23 06:58:42;;;;;;;1.73;1.27;;;;;;;4.49;100.00;101322.22;5003216;28;20071;-77
2022/09/23 07:01:11;;;;;;;2.57;1.53;;;;;;;4.83;100.00;101325.31;4992887;28;20519;-77
2022/09/23 07:03:38;;;;;;;3.27;1.67;;;;;;;4.99;100.00;101325.53;5019943;28;20043;-77
2022/09/23 07:06:05;;;;;;;3.60;1.80;;;;;;;5.16;100.00;101317.00;5005132;28;20060;-77
2022/09/23 07:08:33;;;;;;;2.37;1.50;;;;;;;5.43;100.00;101322.56;4992185;28;20056;-78
2022/09/23 07:11:02;;;;;;;2.03;1.43;;;;;;;5.52;100.00;101322.66;5016863;28;20060;-77
2022/09/23 07:13:29;;;;;;;2.33;1.50;;;;;;;5.64;100.00;101320.19;5042577;28;20103;-77
2022/09/23 07:16:00;;;;;;;2.00;1.50;;;;;;;5.93;100.00;101320.47;5029024;28;20445;-78
2022/09/23 07:18:30;;;;;;;2.63;1.63;;;;;;;6.15;100.00;101321.56;5011191;28;20045;-78
2022/09/23 07:21:13;;;;;;;2.07;1.60;;;;;;;6.35;100.00;101326.06;5015699;28;20641;-78
2022/09/23 07:23:41;;;;;;;3.73;2.17;;;;;;;6.33;100.00;101328.69;5003455;28;20038;-77
2022/09/23 07:26:08;;;;;;;2.40;1.40;;;;;;;6.54;100.00;101325.31;5023394;28;20454;-77
2022/09/23 07:28:35;;;;;;;2.43;1.93;;;;;;;6.69;100.00;101324.53;5050070;28;20456;-78
2022/09/23 07:31:08;;;;;;;2.20;1.77;;;;;;;6.83;100.00;101325.50;5014249;28;20124;-77
2022/09/23 07:33:36;;;;;;;2.77;1.53;;;;;;;6.98;100.00;101316.84;5017675;28;20052;-77
2022/09/23 07:36:06;;;;;;;2.73;1.70;;;;;;;7.10;100.00;101327.41;5128875;23;20042;-83
2022/09/23 07:38:33;;;;;;;4.30;2.13;;;;;;;7.27;100.00;101315.19;5054372;28;20041;-83
2022/09/23 07:41:06;;;;;;;3.20;2.37;;;;;;;7.52;100.00;101320.53;5071143;28;20086;-83
2022/09/23 07:43:33;;;;;;;2.73;2.20;;;;;;;7.62;100.00;101317.91;5062705;28;20043;-83
2022/09/23 07:46:01;;;;;;;3.00;1.90;;;;;;;7.76;100.00;101317.97;5053226;28;20086;-82
2022/09/23 07:48:29;;;;;;;5.43;3.30;;;;;;;7.88;100.00;101323.22;5047855;28;20673;-81
2022/09/23 07:51:05;;;;;;;6.17;2.00;;;;;;;8.03;100.00;101318.84;5030294;28;20045;-83
2022/09/23 07:53:32;;;;;;;2.33;1.70;;;;;;;8.18;100.00;101313.59;5030943;28;20090;-83
2022/09/23 07:55:59;;;;;;;4.80;2.00;;;;;;;8.37;100.00;101311.84;5064454;28;20044;-81
2022/09/23 07:58:25;;;;;;;5.63;2.70;;;;;;;8.66;100.00;101312.69;5052093;28;20046;-84
2022/09/23 08:00:52;;;;;;;3.17;2.30;;;;;;;8.86;100.00;101315.28;5064202;28;20044;-83
2022/09/23 08:03:20;;;;;;;3.30;2.37;;;;;;;9.13;100.00;101313.41;5066635;28;20482;-82
2022/09/23 08:05:47;;;;;;;3.08;2.35;;;;;;;9.41;100.00;101308.88;5056540;28;20040;-84
2022/09/23 08:08:13;;;;;;;2.78;1.90;;;;;;;9.67;100.00;101308.72;5049885;28;20501;-82
2022/09/23 08:10:40;;;;;;;3.97;2.42;;;;;;;9.72;100.00;101310.47;5080647;28;20048;-84
2022/09/23 08:13:07;;;;;;;2.75;2.13;;;;;;;9.80;100.00;101305.13;5051080;28;20081;-84
2022/09/23 08:15:33;;;;;;;3.35;1.85;;;;;;;9.91;100.00;101300.66;5063553;28;20093;-81
2022/09/23 08:18:00;;;;;;;2.60;2.03;;;;;;;10.24;100.00;101298.66;5059349;28;20105;-83
2022/09/23 08:20:46;;;;;;;3.33;1.88;;;;;;;10.26;100.00;101304.81;5049314;28;20061;-83
2022/09/23 08:23:15;;;;;;;3.13;2.15;;;;;;;10.40;100.00;101303.78;5049238;28;20066;-83
2022/09/23 08:25:44;;;;;;;3.40;2.30;;;;;;;10.63;100.00;101305.31;5048398;28;20040;-84
2022/09/23 08:28:17;;;;;;;2.95;2.30;;;;;;;10.70;100.00;101297.31;5063280;28;20048;-82
2022/09/23 08:30:47;;;;;;;2.83;2.10;;;;;;;10.93;100.00;101301.44;5068226;28;20044;-81
2022/09/23 08:33:14;;;;;;;2.33;1.65;;;;;;;10.94;100.00;101293.53;5047631;28;20056;-84
2022/09/23 08:35:45;;;;;;;3.97;1.95;;;;;;;11.08;100.00;101288.06;5061508;28;20052;-84
2022/09/23 08:38:11;;;;;;;2.15;1.77;;;;;;;11.24;100.00;101279.03;5050312;28;20067;-84
2022/09/23 08:40:41;;;;;;;2.65;1.70;;;;;;;11.38;100.00;101278.84;5040027;28;20061;-83
2022/09/23 08:43:18;;;;;;;2.65;1.80;;;;;;;11.49;98.73;101276.03;5069158;28;20040;-84
2022/09/23 08:45:45;;;;;;;3.85;2.13;;;;;;;11.72;94.98;101281.00;5057058;28;20060;-83
2022/09/23 08:48:14;;;;;;;2.63;1.75;;;;;;;11.90;87.29;101283.41;5069126;28;20055;-83
2022/09/23 08:50:44;;;;;;;2.17;1.50;;;;;;;11.96;90.51;101275.38;5065911;28;20044;-83
2022/09/23 08:53:26;;;;;;;2.20;1.67;;;;;;;12.36;84.84;101270.25;5039875;28;20040;-80
2022/09/23 08:55:54;;;;;;;2.55;1.48;;;;;;;12.35;84.70;101270.25;5053929;28;20573;-82
2022/09/23 08:58:59;;;;;;;2.55;1.50;;;;;;;12.66;84.08;101271.44;5066862;28;20051;-80
2022/09/23 09:01:28;;;;;;;2.20;1.50;;;;;;;12.87;80.44;101278.13;5054171;28;20386;-81
2022/09/23 09:03:58;;;;;;;4.60;2.03;;;;;;;12.99;81.79;101273.47;5055817;28;20298;-80
2022/09/23 09:06:32;;;;;;;2.10;1.55;;;;;;;13.10;82.39;101271.44;5113744;23;20579;-83
2022/09/23 09:09:22;;;;;;;3.03;1.50;;;;;;;13.42;81.61;101266.34;5077827;22;20029;-82
2022/09/23 09:11:53;;;;;;;3.05;1.60;;;;;;;13.77;76.92;101264.66;5055158;23;20047;-82
2022/09/23 09:14:50;;;;;;;2.15;1.75;;;;;;;13.95;74.34;101268.66;5019648;28;20045;-82
2022/09/23 09:17:58;;;;;;;2.15;1.65;;;;;;;14.23;74.99;101274.16;5017932;28;20056;-81
2022/09/23 09:20:50;;;;;;;3.30;2.05;;;;;;;14.29;67.22;101258.94;5042586;28;20064;-81
2022/09/23 09:23:42;;;;;;;1.75;1.65;;;;;;;14.62;72.30;101258.94;5036143;28;20087;-82
2022/09/23 09:26:15;;;;;;;5.00;1.98;;;;;;;14.87;65.51;101256.47;5031963;28;20053;-80
2022/09/23 09:28:46;;;;;;;2.03;1.50;;;;;;;15.05;64.68;101255.97;5021229;28;20596;-80
2022/09/23 09:31:25;;;;;;;1.63;1.45;;;;;;;15.24;69.53;101252.75;5033407;28;20054;-80
2022/09/23 09:33:56;;;;;;;2.88;1.50;;;;;;;15.35;67.75;101250.63;5043375;28;20037;-82
2022/09/23 09:36:42;;;;;;;3.67;1.35;;;;;;;15.59;62.76;101249.84;5010925;28;20068;-79
2022/09/23 09:39:11;;;;;;;2.88;1.50;;;;;;;15.51;61.01;101243.91;5063742;28;20512;-81
2022/09/23 09:41:40;;;;;;;3.20;1.77;;;;;;;15.51;64.09;101240.38;5036486;28;20401;-80
2022/09/23 09:44:19;;;;;;;1.70;1.40;;;;;;;15.62;59.22;101247.13;5030517;28;20037;-81
2022/09/23 09:47:06;;;;;;;3.53;1.25;;;;;;;15.77;59.93;101230.63;5029438;28;20068;-80
2022/09/23 09:49:59;;;;;;;1.42;1.33;;;;;;;15.86;58.08;101229.47;5033228;28;20055;-80
2022/09/23 09:52:30;;;;;;;1.90;1.67;;;;;;;16.02;57.30;101227.16;5030317;28;20053;-81
2022/09/23 09:55:12;;;;;;;2.33;1.30;;;;;;;16.07;58.10;101219.03;5067306;28;20424;-80
2022/09/23 09:57:44;;;;;;;1.65;1.20;;;;;;;16.20;55.15;101213.19;5069681;28;20105;-79
2022/09/23 10:00:17;;;;;;;2.47;1.13;;;;;;;16.09;54.47;101218.03;5055380;28;20047;-80
2022/09/23 10:02:45;;;;;;;1.50;1.15;;;;;;;16.19;55.11;101211.44;5035411;28;20051;-79
2022/09/23 10:05:34;;;;;;;3.42;1.40;;;;;;;16.18;56.38;101207.03;5038417;28;20174;-79
2022/09/23 10:08:34;;;;;;;1.85;1.40;;;;;;;16.29;57.19;101201.34;5055314;28;20535;-80
2022/09/23 10:11:02;;;;;;;1.30;1.20;;;;;;;16.40;57.06;101203.63;5054176;28;20036;-79
2022/09/23 10:13:29;;;;;;;2.58;1.58;;;;;;;16.53;55.56;101194.25;5043208;28;20047;-81
2022/09/23 10:15:57;;;;;;;2.10;1.40;;;;;;;16.81;52.35;101197.66;5052638;28;20045;-78
2022/09/23 10:18:55;;;;;;;2.97;1.45;;;;;;;16.53;51.17;101202.25;5078680;28;20112;-80
2022/09/23 10:21:23;;;;;;;1.40;1.30;;;;;;;16.71;55.84;101196.25;5047178;28;20043;-79
2022/09/23 10:23:56;;;;;;;2.80;1.60;;;;;;;16.77;53.17;101193.38;5046633;28;20039;-79
2022/09/23 10:26:41;;;;;;;2.58;1.55;;;;;;;16.48;51.61;101189.09;5026009;28;20039;-81
2022/09/23 10:29:29;;;;;;;3.42;1.60;;;;;;;16.36;53.58;101189.53;5026641;28;20041;-80
2022/09/23 10:32:18;;;;;;;2.33;1.75;;;;;;;16.56;51.68;101183.47;5026765;28;20037;-81
2022/09/23 10:34:50;;;;;;;2.30;1.80;;;;;;;16.70;53.19;101175.84;5044527;28;20048;-81
2022/09/23 10:37:29;;;;;;;2.47;1.50;;;;;;;16.92;51.23;101180.38;5041506;28;20513;-80
2022/09/23 10:48:47;;;;;;;2.28;1.40;;;;;;;16.90;49.47;101193.78;5040395;28;20044;-80
2022/09/23 10:51:37;;;;;;;4.28;1.40;;;;;;;16.81;49.29;101178.97;5065249;28;20686;-81
2022/09/23 10:54:23;;;;;;;2.47;1.40;;;;;;;16.84;50.18;101175.34;5018427;28;20044;-81
2022/09/23 10:56:53;;;;;;;2.63;1.85;;;;;;;16.94;50.41;101178.53;5045230;28;20059;-81
2022/09/23 10:59:48;;;;;;;1.70;1.30;;;;;;;16.97;50.17;101171.25;5046758;28;20049;-81
2022/09/23 11:02:30;;;;;;;3.92;1.50;;;;;;;16.99;49.23;101171.22;5039661;28;20531;-80
2022/09/23 11:05:05;;;;;;;1.80;1.38;;;;;;;17.04;50.10;101158.53;5059022;28;20028;-81
2022/09/23 11:07:58;;;;;;;3.40;2.25;;;;;;;17.09;50.85;101162.78;5027660;28;20040;-81
2022/09/23 11:10:42;;;;;;;2.42;1.50;;;;;;;17.06;48.83;101168.22;5054422;28;20492;-81
2022/09/23 11:13:27;;;;;;;1.30;1.17;;;;;;;17.00;48.39;101162.28;5048852;28;20625;-81
2022/09/23 11:16:16;;;;;;;1.35;1.20;;;;;;;16.96;48.69;101161.50;5078235;28;20773;-79
2022/09/23 11:19:20;;;;;;;1.58;1.30;;;;;;;16.97;50.72;101157.03;5048068;28;20692;-80
2022/09/23 11:21:59;;;;;;;2.10;1.70;;;;;;;16.88;52.52;101147.59;5047439;28;20067;-80
2022/09/23 11:24:48;;;;;;;3.20;1.33;;;;;;;17.04;51.19;101154.06;5025740;28;20040;-80
2022/09/23 11:27:34;;;;;;;1.50;1.10;;;;;;;17.11;49.30;101154.72;5007889;28;20045;-81
2022/09/23 11:30:12;;;;;;;1.60;1.10;;;;;;;17.17;49.61;101144.66;5029610;28;20044;-79
2022/09/23 11:32:53;;;;;;;2.00;1.30;;;;;;;17.22;49.50;101136.44;5047474;28;20040;-79
2022/09/23 11:35:26;;;;;;;1.63;1.40;;;;;;;17.17;49.19;101138.44;5048650;28;20082;-81
2022/09/23 11:38:05;;;;;;;2.35;1.40;;;;;;;16.92;47.51;101137.69;5060595;28;20042;-82
2022/09/23 11:40:35;;;;;;;4.32;1.58;;;;;;;16.48;49.96;101134.84;5044405;28;20493;-81
2022/09/23 11:43:14;;;;;;;6.00;2.08;;;;;;;16.71;52.37;101131.34;5037438;28;20407;-81
2022/09/23 11:45:54;;;;;;;1.48;1.30;;;;;;;16.94;51.54;101130.47;5021864;28;20036;-81
2022/09/23 11:48:26;;;;;;;2.22;1.70;;;;;;;17.24;49.92;101123.06;5045025;28;20045;-81
2022/09/23 11:51:00;;;;;;;2.78;1.23;;;;;;;17.30;47.08;101112.97;5037732;28;20135;-81
2022/09/23 11:53:41;;;;;;;;;;;;;;;17.20;45.06;101106.28;5056467;28;20070;-81
2022/09/23 11:56:33;;;;;;;2.30;1.30;;;;;;;17.31;46.57;101103.16;5051286;28;20277;-80
2022/09/23 11:59:39;;;;;;;1.65;1.27;;;;;;;17.39;48.09;101101.03;5030647;28;20056;-79
2022/09/23 12:02:23;;;;;;;1.55;1.35;;;;;;;17.54;49.56;101099.53;5026791;28;20125;-78
2022/09/23 12:05:01;;;;;;;2.03;1.60;;;;;;;17.71;49.96;101099.72;5039957;28;20037;-79
2022/09/23 12:07:45;;;;;;;2.13;1.40;;;;;;;17.80;46.50;101102.00;5054532;28;20043;-80